createdAt,value
2022-10-03T00:03:27.778Z,2.42
2022-10-03T00:08:35.792Z,2.20
2022-10-03T00:13:56.087Z,2.15
2022-10-03T00:19:28.806Z,1.95
2022-10-03T00:24:33.933Z,1.67
2022-10-03T00:29:39.343Z,1.80
2022-10-03T00:35:02.792Z,1.60
2022-10-03T00:40:23.693Z,1.75
2022-10-03T00:46:09.104Z,1.70
2022-10-03T00:51:29.507Z,1.63
2022-10-03T00:56:57.399Z,1.75
2022-10-03T01:02:00.346Z,1.90
2022-10-03T01:07:12.490Z,1.75
2022-10-03T01:12:44.981Z,2.08
2022-10-03T01:18:10.306Z,1.40
2022-10-03T01:23:32.830Z,1.80
2022-10-03T01:29:33.587Z,1.80
2022-10-03T01:34:54.294Z,1.75
2022-10-03T01:40:15.294Z,2.33
2022-10-03T01:45:38.980Z,1.88
2022-10-03T01:50:50.443Z,1.83
2022-10-03T01:56:13.347Z,1.73
2022-10-03T02:01:30.605Z,1.50
2022-10-03T02:06:40.574Z,1.30
2022-10-03T02:11:55.976Z,2.03
2022-10-03T02:17:05.177Z,1.83
2022-10-03T02:22:36.251Z,2.20
2022-10-03T02:28:13.150Z,1.67
2022-10-03T02:33:41.209Z,1.75
2022-10-03T02:39:12.670Z,2.35
2022-10-03T02:44:23.746Z,1.63
2022-10-03T02:49:50.826Z,1.75
2022-10-03T02:55:06.170Z,1.80
2022-10-03T03:00:21.936Z,1.85
2022-10-03T03:05:46.471Z,2.10
2022-10-03T03:11:18.834Z,1.38
2022-10-03T03:16:30.549Z,2.08
2022-10-03T03:21:42.726Z,1.92
2022-10-03T03:26:47.834Z,1.50
2022-10-03T03:32:11.073Z,1.75
2022-10-03T03:37:52.466Z,1.63
2022-10-03T03:43:19.458Z,1.60
2022-10-03T03:48:39.834Z,1.25
2022-10-03T03:53:54.014Z,1.88
2022-10-03T03:59:20.363Z,1.70
2022-10-03T04:04:28.321Z,1.20
2022-10-03T04:09:43.742Z,1.92
2022-10-03T04:15:04.071Z,1.60
2022-10-03T04:20:44.204Z,2.28
2022-10-03T04:26:23.101Z,1.63
2022-10-03T04:31:54.958Z,1.95
2022-10-03T04:37:12.644Z,1.65
2022-10-03T04:42:48.541Z,1.50
2022-10-03T04:48:00.316Z,1.70
2022-10-03T04:53:14.530Z,2.28
2022-10-03T04:58:38.109Z,1.98
2022-10-03T05:03:58.505Z,1.50
2022-10-03T05:09:22.226Z,1.38
2022-10-03T05:14:33.524Z,1.45
2022-10-03T05:19:47.395Z,1.60
2022-10-03T05:24:52.558Z,1.52
2022-10-03T05:30:07.051Z,1.67
2022-10-03T05:35:48.237Z,2.20
2022-10-03T05:40:59.734Z,1.90
2022-10-03T05:46:05.568Z,2.47
2022-10-03T05:51:34.630Z,2.30
2022-10-03T05:56:41.158Z,2.58
2022-10-03T06:01:59.361Z,2.67
2022-10-03T06:07:27.646Z,2.78
2022-10-03T06:12:45.932Z,3.58
2022-10-03T06:18:03.553Z,3.78
2022-10-03T06:23:30.449Z,3.60
2022-10-03T06:28:44.737Z,3.78
2022-10-03T06:34:12.602Z,4.90
2022-10-03T06:39:33.333Z,4.10
2022-10-03T06:44:57.738Z,4.15
2022-10-03T06:50:26.431Z,4.00
2022-10-03T06:56:13.701Z,4.78
2022-10-03T07:01:53.317Z,5.50
2022-10-03T07:07:10.006Z,4.93
2022-10-03T07:12:31.678Z,5.13
2022-10-03T07:17:49.786Z,6.72
2022-10-03T07:23:04.882Z,5.22
2022-10-03T07:28:34.411Z,6.32
2022-10-03T07:34:01.418Z,6.03
2022-10-03T07:39:17.910Z,5.90
2022-10-03T07:44:42.750Z,6.05
2022-10-03T07:50:18.155Z,4.93
2022-10-03T07:55:29.470Z,3.85
2022-10-03T08:01:13.121Z,4.15
2022-10-03T08:06:26.632Z,3.10
2022-10-03T08:11:53.353Z,2.90
2022-10-03T08:17:01.571Z,2.40
2022-10-03T08:22:15.641Z,2.80
2022-10-03T08:27:52.341Z,2.10
2022-10-03T08:32:57.872Z,1.83
2022-10-03T08:38:12.523Z,1.98
2022-10-03T08:43:38.682Z,1.80
2022-10-03T08:48:47.151Z,1.42
2022-10-03T08:54:01.561Z,1.52
2022-10-03T08:59:32.108Z,1.05
2022-10-03T09:04:34.402Z,1.50
2022-10-03T09:09:59.293Z,1.20
2022-10-03T09:15:01.833Z,1.20
2022-10-03T09:20:18.089Z,1.95
2022-10-03T09:25:27.123Z,1.38
2022-10-03T09:30:41.711Z,1.30
2022-10-03T09:36:11.994Z,1.20
2022-10-03T09:41:51.123Z,2.08
2022-10-03T09:47:23.727Z,1.60
2022-10-03T09:52:47.428Z,1.80
2022-10-03T09:58:02.224Z,1.45
2022-10-03T10:03:13.488Z,1.15
2022-10-03T10:08:33.644Z,1.45
2022-10-03T10:14:07.721Z,1.73
2022-10-03T10:19:37.428Z,1.60
2022-10-03T10:25:14.383Z,1.20
2022-10-03T10:30:31.788Z,1.40
2022-10-03T10:35:33.994Z,1.50
2022-10-03T10:40:48.583Z,1.33
2022-10-03T10:46:10.755Z,1.17
2022-10-03T10:51:31.525Z,1.48
2022-10-03T10:57:12.057Z,1.83
2022-10-03T11:02:29.267Z,1.38
2022-10-03T11:07:37.430Z,0.85
2022-10-03T11:13:02.407Z,1.52
2022-10-03T11:18:25.001Z,1.30
2022-10-03T11:23:47.049Z,1.23
2022-10-03T11:29:13.875Z,1.30
2022-10-03T11:34:36.697Z,1.30
2022-10-03T11:40:02.469Z,1.67
2022-10-03T11:45:07.698Z,1.30
2022-10-03T11:50:29.515Z,1.60
2022-10-03T11:55:34.040Z,1.10
2022-10-03T12:00:37.370Z,1.27
2022-10-03T12:06:19.568Z,1.77
2022-10-03T12:11:28.331Z,1.02
2022-10-03T12:17:00.212Z,1.05
2022-10-03T12:22:20.742Z,1.40
2022-10-03T12:27:42.093Z,1.08
2022-10-03T12:33:13.028Z,1.30
2022-10-03T12:38:39.214Z,1.45
2022-10-03T12:44:09.221Z,1.65
2022-10-03T12:49:40.473Z,1.75
2022-10-03T12:54:54.562Z,1.90
2022-10-03T13:00:18.001Z,1.73
2022-10-03T13:05:20.351Z,1.95
2022-10-03T13:10:37.203Z,2.33
2022-10-03T13:15:54.668Z,2.50
2022-10-03T13:21:03.114Z,1.75
2022-10-03T13:26:18.528Z,1.65
2022-10-03T13:31:25.746Z,2.00
2022-10-03T13:36:58.731Z,2.33
2022-10-03T13:42:10.524Z,2.63
2022-10-03T13:47:49.020Z,2.03
2022-10-03T13:53:01.131Z,1.80
2022-10-03T13:58:15.267Z,1.98
2022-10-03T14:04:13.089Z,1.77
2022-10-03T14:09:24.376Z,1.75
2022-10-03T14:14:58.770Z,2.03
2022-10-03T14:20:06.870Z,1.60
2022-10-03T14:25:38.514Z,1.90
2022-10-03T14:31:06.462Z,1.90
2022-10-03T14:36:18.066Z,2.03
2022-10-03T14:41:26.023Z,2.70
2022-10-03T14:46:34.188Z,2.95
2022-10-03T14:51:48.924Z,3.83
2022-10-03T14:56:52.061Z,2.80
2022-10-03T15:01:56.816Z,2.50
2022-10-03T15:07:02.887Z,2.33
2022-10-03T15:12:09.745Z,2.38
2022-10-03T15:17:24.425Z,2.80
2022-10-03T15:22:29.855Z,2.63
2022-10-03T15:27:32.764Z,3.10
2022-10-03T15:32:42.256Z,3.30
2022-10-03T15:37:47.797Z,2.72
2022-10-03T15:42:54.234Z,2.53
2022-10-03T15:48:00.375Z,2.90
2022-10-03T15:53:35.213Z,2.90
2022-10-03T15:58:39.835Z,3.22
2022-10-03T16:03:47.731Z,3.22
2022-10-03T16:09:17.547Z,3.63
2022-10-03T16:14:23.033Z,8.05
2022-10-03T16:19:46.727Z,6.40
2022-10-03T16:25:14.113Z,3.90
2022-10-03T16:30:22.749Z,3.53
2022-10-03T16:35:35.809Z,3.63
2022-10-03T16:40:38.475Z,6.40
2022-10-03T16:45:43.492Z,7.78
2022-10-03T16:50:52.679Z,7.78
2022-10-03T16:56:07.714Z,7.35
2022-10-03T17:01:26.969Z,7.20
2022-10-03T17:06:35.171Z,6.22
2022-10-03T17:11:38.917Z,8.43
2022-10-03T17:16:47.942Z,8.95
2022-10-03T17:21:56.204Z,8.43
2022-10-03T17:27:03.189Z,10.00
2022-10-03T17:32:24.796Z,9.60
2022-10-03T17:37:29.926Z,13.38
2022-10-03T17:42:55.596Z,12.63
2022-10-03T17:48:11.521Z,9.52
2022-10-03T17:53:22.155Z,7.80
2022-10-03T17:58:26.572Z,7.20
2022-10-03T18:03:43.844Z,6.93
2022-10-03T18:08:47.651Z,7.00
2022-10-03T18:14:19.182Z,5.65
2022-10-03T18:19:52.238Z,5.97
2022-10-03T18:25:25.658Z,5.88
2022-10-03T18:30:33.762Z,4.97
2022-10-03T18:35:37.176Z,5.80
2022-10-03T18:40:55.940Z,4.40
2022-10-03T18:46:08.108Z,6.03
2022-10-03T18:51:13.333Z,5.75
2022-10-03T18:56:23.885Z,5.85
2022-10-03T19:01:32.587Z,5.20
2022-10-03T19:06:42.109Z,5.18
2022-10-03T19:11:48.251Z,5.57
2022-10-03T19:17:14.613Z,4.63
2022-10-03T19:22:22.182Z,5.00
2022-10-03T19:32:43.913Z,6.80
2022-10-03T19:37:51.324Z,8.93
2022-10-03T19:42:59.801Z,9.23
2022-10-03T19:48:10.432Z,9.63
2022-10-03T19:53:17.305Z,6.95
2022-10-03T19:58:24.382Z,6.53
2022-10-03T20:03:32.601Z,5.60
2022-10-03T20:09:03.660Z,5.18
2022-10-03T20:14:06.494Z,4.97
2022-10-03T20:19:12.402Z,4.13
2022-10-03T20:24:38.773Z,4.72
2022-10-03T20:29:48.990Z,4.18
2022-10-03T20:34:56.637Z,4.43
2022-10-03T20:40:11.310Z,4.00
2022-10-03T20:45:23.302Z,5.15
2022-10-03T20:50:40.485Z,4.70
2022-10-03T20:55:52.519Z,2.70
2022-10-03T21:01:08.693Z,3.65
2022-10-03T21:06:20.927Z,3.60
2022-10-03T21:11:28.766Z,3.95
2022-10-03T21:16:34.706Z,3.60
2022-10-03T21:21:43.587Z,3.15
2022-10-03T21:26:48.439Z,2.95
2022-10-03T21:32:29.355Z,2.45
2022-10-03T21:37:31.620Z,3.08
2022-10-03T21:42:39.498Z,2.50
2022-10-03T21:47:51.753Z,2.83
2022-10-03T21:52:54.075Z,2.67
2022-10-03T21:58:06.432Z,2.13
2022-10-03T22:03:16.953Z,2.95
2022-10-03T22:08:26.296Z,3.30
2022-10-03T22:13:31.670Z,2.72
2022-10-03T22:18:55.002Z,2.40
2022-10-03T22:24:49.162Z,2.85
2022-10-03T22:30:15.790Z,3.33
2022-10-03T22:35:33.712Z,4.15
2022-10-03T22:40:36.697Z,3.30
2022-10-03T22:45:42.415Z,3.03
2022-10-03T22:50:45.311Z,3.80
2022-10-03T22:55:52.282Z,2.83
2022-10-03T23:00:56.755Z,2.55
2022-10-03T23:06:20.441Z,2.95
2022-10-03T23:11:33.310Z,3.20
2022-10-03T23:16:57.661Z,3.10
2022-10-03T23:22:00.620Z,2.95
2022-10-03T23:27:30.543Z,4.07
2022-10-03T23:32:47.877Z,3.70
2022-10-03T23:37:50.457Z,3.47
2022-10-03T23:43:25.310Z,3.28
2022-10-03T23:48:29.251Z,3.45
2022-10-03T23:53:38.958Z,3.60
2022-10-03T23:58:41.341Z,4.85
